createdAt,value
2019-02-02T00:00:45.550Z,99121.69
2019-02-02T00:03:13.818Z,99128.30
2019-02-02T00:05:42.194Z,99134.80
2019-02-02T00:08:10.456Z,99128.70
2019-02-02T00:10:38.732Z,99126.92
2019-02-02T00:13:07.035Z,99138.45
2019-02-02T00:15:35.303Z,99145.41
2019-02-02T00:18:03.647Z,99122.70
2019-02-02T00:20:31.954Z,99127.65
2019-02-02T00:23:00.278Z,99119.09
2019-02-02T00:25:28.556Z,99144.02
2019-02-02T00:27:56.928Z,99129.47
2019-02-02T00:30:25.218Z,99125.70
2019-02-02T00:32:57.316Z,99128.16
2019-02-02T00:35:25.730Z,99128.64
2019-02-02T00:37:54.017Z,99139.25
2019-02-02T00:40:22.267Z,99126.30
2019-02-02T00:42:50.588Z,99140.06
2019-02-02T00:45:21.151Z,99136.66
2019-02-02T00:47:52.703Z,99138.29
2019-02-02T00:50:20.997Z,99130.77
2019-02-02T00:52:49.272Z,99129.73
2019-02-02T00:55:18.968Z,99125.73
2019-02-02T00:57:53.631Z,99124.30
2019-02-02T01:00:25.538Z,99109.95
2019-02-02T01:02:55.205Z,99121.96
2019-02-02T01:05:24.006Z,99106.20
2019-02-02T01:07:53.216Z,99100.66
2019-02-02T01:10:33.829Z,99104.90
2019-02-02T01:13:02.091Z,99117.61
2019-02-02T01:15:30.446Z,99112.20
2019-02-02T01:17:58.743Z,99097.00
2019-02-02T01:20:27.100Z,99096.08
2019-02-02T01:22:55.373Z,99084.06
2019-02-02T01:25:23.685Z,99077.70
2019-02-02T01:27:51.938Z,99088.06
2019-02-02T01:30:22.059Z,99086.31
2019-02-02T01:32:50.372Z,99083.61
2019-02-02T01:35:19.476Z,99089.83
2019-02-02T01:37:47.755Z,99095.48
2019-02-02T01:40:18.950Z,99094.64
2019-02-02T01:42:47.216Z,99086.31
2019-02-02T01:45:18.027Z,99093.34
2019-02-02T01:47:46.395Z,99078.30
2019-02-02T01:50:20.178Z,99074.88
2019-02-02T01:52:48.452Z,99079.13
2019-02-02T01:55:17.794Z,99086.89
2019-02-02T01:57:46.056Z,99084.52
2019-02-02T02:00:26.244Z,99086.16
2019-02-02T02:02:54.518Z,99076.89
2019-02-02T02:05:23.254Z,99081.33
2019-02-02T02:07:51.555Z,99064.05
2019-02-02T02:10:20.734Z,99067.45
2019-02-02T02:12:49.010Z,99060.39
2019-02-02T02:15:18.759Z,99060.27
2019-02-02T02:17:50.570Z,99058.16
2019-02-02T02:20:19.989Z,99066.37
2019-02-02T02:22:49.648Z,99067.45
2019-02-02T02:25:19.556Z,99066.27
2019-02-02T02:27:47.987Z,99070.25
2019-02-02T02:30:40.933Z,99048.59
2019-02-02T02:33:09.204Z,99050.61
2019-02-02T02:35:37.538Z,99053.91
2019-02-02T02:38:05.868Z,99043.55
2019-02-02T02:40:34.099Z,99044.96
2019-02-02T02:43:02.372Z,99042.01
2019-02-02T02:45:30.669Z,99046.25
2019-02-02T02:47:58.934Z,99050.70
2019-02-02T02:50:27.296Z,99052.48
2019-02-02T02:52:56.545Z,99055.55
2019-02-02T02:55:24.808Z,99049.89
2019-02-02T02:57:53.140Z,99061.41
2019-02-02T03:00:27.028Z,99057.53
2019-02-02T03:02:55.365Z,99057.44
2019-02-02T03:05:23.704Z,99055.66
2019-02-02T03:07:53.444Z,99058.12
2019-02-02T03:10:23.823Z,99060.03
2019-02-02T03:12:52.466Z,99059.55
2019-02-02T03:15:20.780Z,99059.91
2019-02-02T03:17:50.290Z,99056.84
2019-02-02T03:20:18.726Z,99062.14
2019-02-02T03:22:47.024Z,99063.80
2019-02-02T03:25:20.369Z,99050.63
2019-02-02T03:27:48.707Z,99043.09
2019-02-02T03:30:23.112Z,99042.49
2019-02-02T03:32:51.371Z,99045.08
2019-02-02T03:35:21.695Z,99023.46
2019-02-02T03:37:50.017Z,99046.64
2019-02-02T03:40:20.318Z,99039.09
2019-02-02T03:42:48.593Z,99038.39
2019-02-02T03:45:18.950Z,99026.75
2019-02-02T03:47:47.263Z,99033.69
2019-02-02T03:50:15.656Z,99027.58
2019-02-02T03:52:44.049Z,99021.92
2019-02-02T03:55:14.801Z,99022.62
2019-02-02T03:57:43.150Z,99020.98
2019-02-02T04:00:14.103Z,99014.50
2019-02-02T04:02:42.357Z,99020.49
2019-02-02T04:05:13.668Z,99022.62
2019-02-02T04:07:42.045Z,99018.38
2019-02-02T04:10:12.582Z,99020.05
2019-02-02T04:12:40.834Z,99021.43
2019-02-02T04:15:11.067Z,99028.75
2019-02-02T04:17:39.394Z,99003.91
2019-02-02T04:20:13.724Z,99017.79
2019-02-02T04:22:42.027Z,99010.26
2019-02-02T04:25:10.365Z,99019.08
2019-02-02T04:27:38.636Z,99010.62
2019-02-02T04:30:10.190Z,99019.92
2019-02-02T04:32:38.474Z,99021.09
2019-02-02T04:35:11.488Z,98997.55
2019-02-02T04:37:39.780Z,99007.06
2019-02-02T04:40:12.719Z,99008.60
2019-02-02T04:42:42.616Z,99008.73
2019-02-02T04:45:13.400Z,99012.25
2019-02-02T04:47:41.659Z,99015.53
2019-02-02T04:50:15.858Z,99019.56
2019-02-02T04:52:44.158Z,99027.58
2019-02-02T04:55:14.073Z,99017.91
2019-02-02T04:57:42.332Z,99031.91
2019-02-02T05:00:15.488Z,99028.38
2019-02-02T05:02:43.771Z,99024.26
2019-02-02T05:05:14.377Z,99031.69
2019-02-02T05:07:42.670Z,99023.20
2019-02-02T05:10:19.524Z,99023.67
2019-02-02T05:12:48.196Z,99020.51
2019-02-02T05:15:16.543Z,99025.81
2019-02-02T05:17:44.825Z,99032.86
2019-02-02T05:20:15.131Z,99034.27
2019-02-02T05:22:43.411Z,99031.56
2019-02-02T05:25:11.765Z,99042.16
2019-02-02T05:27:40.057Z,99060.75
2019-02-02T05:30:16.924Z,99062.64
2019-02-02T05:32:45.268Z,99056.28
2019-02-02T05:35:13.531Z,99056.52
2019-02-02T05:37:41.827Z,99072.77
2019-02-02T05:40:13.143Z,99053.81
2019-02-02T05:42:41.427Z,99066.40
2019-02-02T05:45:12.355Z,99060.16
2019-02-02T05:47:40.658Z,99049.12
2019-02-02T05:50:11.972Z,99050.41
2019-02-02T05:52:40.255Z,99062.52
2019-02-02T05:55:11.209Z,99062.76
2019-02-02T05:57:40.521Z,99055.92
2019-02-02T06:00:16.550Z,99060.28
2019-02-02T06:02:46.809Z,99051.59
2019-02-02T06:05:15.217Z,99053.83
2019-02-02T06:07:43.536Z,99051.56
2019-02-02T06:10:17.233Z,99044.40
2019-02-02T06:12:45.530Z,99063.34
2019-02-02T06:15:13.905Z,99064.42
2019-02-02T06:17:42.173Z,99067.82
2019-02-02T06:20:12.974Z,99070.77
2019-02-02T06:22:41.284Z,99069.48
2019-02-02T06:25:14.315Z,99061.36
2019-02-02T06:27:42.591Z,99061.45
2019-02-02T06:30:14.196Z,99075.48
2019-02-02T06:32:42.548Z,99069.36
2019-02-02T06:35:12.058Z,99079.23
2019-02-02T06:37:40.365Z,99070.17
2019-02-02T06:40:11.284Z,99065.71
2019-02-02T06:42:39.892Z,99073.00
2019-02-02T06:45:14.409Z,99082.76
2019-02-02T06:47:42.764Z,99092.05
2019-02-02T06:50:14.181Z,99091.82
2019-02-02T06:52:42.480Z,99091.48
2019-02-02T06:55:13.392Z,99100.31
2019-02-02T06:57:41.664Z,99093.00
2019-02-02T07:00:16.193Z,99104.42
2019-02-02T07:02:43.372Z,99108.66
2019-02-02T07:05:11.656Z,99112.07
2019-02-02T07:07:44.625Z,99125.98
2019-02-02T07:10:25.811Z,99132.91
2019-02-02T07:12:58.875Z,99123.16
2019-02-02T07:15:32.470Z,99124.91
2019-02-02T07:18:04.482Z,99110.66
2019-02-02T07:20:36.988Z,99115.48
2019-02-02T07:23:10.125Z,99132.20
2019-02-02T07:25:43.265Z,99127.88
2019-02-02T07:28:16.609Z,99118.20
2019-02-02T07:30:50.839Z,99116.33
2019-02-02T07:33:25.720Z,99120.55
2019-02-02T07:35:58.937Z,99114.92
2019-02-02T07:38:32.082Z,99121.61
2019-02-02T07:41:05.067Z,99110.44
2019-02-02T07:43:37.943Z,99116.07
2019-02-02T07:46:15.030Z,99123.48
2019-02-02T07:48:47.049Z,99127.26
2019-02-02T07:51:21.129Z,99122.92
2019-02-02T07:53:55.944Z,99126.45
2019-02-02T07:56:29.942Z,99123.13
2019-02-02T07:59:05.182Z,99123.95
2019-02-02T08:01:40.343Z,99129.02
2019-02-02T08:04:08.605Z,99129.26
2019-02-02T08:06:38.588Z,99126.42
2019-02-02T08:09:08.305Z,99119.01
2019-02-02T08:11:36.637Z,99121.00
2019-02-02T08:14:11.311Z,99134.44
2019-02-02T08:16:38.464Z,99117.35
2019-02-02T08:19:06.783Z,99122.63
2019-02-02T08:21:35.242Z,99131.01
2019-02-02T08:24:03.519Z,99126.39
2019-02-02T08:26:32.973Z,99122.38
2019-02-02T08:29:01.254Z,99130.16
2019-02-02T08:31:29.541Z,99136.77
2019-02-02T08:33:57.849Z,99136.03
2019-02-02T08:36:26.209Z,99132.14
2019-02-02T08:38:54.607Z,99137.91
2019-02-02T08:41:22.930Z,99135.43
2019-02-02T08:43:51.199Z,99127.08
2019-02-02T08:46:21.405Z,99143.08
2019-02-02T08:48:53.086Z,99129.98
2019-02-02T08:51:24.625Z,99132.12
2019-02-02T08:53:54.514Z,99114.28
2019-02-02T08:56:22.937Z,99124.90
2019-02-02T08:58:51.279Z,99120.52
2019-02-02T09:01:22.664Z,99127.19
2019-02-02T09:03:51.221Z,99124.72
2019-02-02T09:06:19.554Z,99132.05
2019-02-02T09:08:47.894Z,99143.11
2019-02-02T09:11:17.859Z,99149.42
2019-02-02T09:13:46.142Z,99142.56
2019-02-02T09:16:16.526Z,99144.22
2019-02-02T09:18:44.847Z,99147.97
2019-02-02T09:21:15.451Z,99138.77
2019-02-02T09:23:47.057Z,99151.02
2019-02-02T09:26:17.055Z,99139.93
2019-02-02T09:28:45.334Z,99144.51
2019-02-02T09:31:15.910Z,99141.91
2019-02-02T09:33:46.918Z,99134.30
2019-02-02T09:36:16.877Z,99133.80
2019-02-02T09:38:45.196Z,99139.20
2019-02-02T09:41:13.503Z,99154.87
2019-02-02T09:43:41.778Z,99148.72
2019-02-02T09:46:11.744Z,99140.89
2019-02-02T09:48:40.025Z,99143.66
2019-02-02T09:51:09.074Z,99132.33
2019-02-02T09:53:38.976Z,99133.34
2019-02-02T09:56:07.460Z,99138.98
2019-02-02T09:58:37.318Z,99139.25
2019-02-02T10:01:06.837Z,99138.02
2019-02-02T10:03:35.202Z,99140.35
2019-02-02T10:06:03.499Z,99137.63
2019-02-02T10:08:32.813Z,99134.79
2019-02-02T10:11:01.127Z,99132.02
2019-02-02T10:13:29.405Z,99131.92
2019-02-02T10:15:59.395Z,99128.44
2019-02-02T10:18:27.719Z,99133.86
2019-02-02T10:21:04.248Z,99130.38
2019-02-02T10:23:34.510Z,99128.80
2019-02-02T10:26:06.744Z,99130.78
2019-02-02T10:28:36.727Z,99124.28
2019-02-02T10:31:08.703Z,99132.44
2019-02-02T10:33:38.653Z,99135.98
2019-02-02T10:36:12.642Z,99135.98
2019-02-02T10:38:43.186Z,99129.95
2019-02-02T10:41:14.726Z,99125.08
2019-02-02T10:43:44.647Z,99127.36
2019-02-02T10:46:14.438Z,99123.11
2019-02-02T10:48:42.767Z,99125.98
2019-02-02T10:51:12.665Z,99112.56
2019-02-02T10:53:40.986Z,99110.63
2019-02-02T10:56:12.201Z,99101.11
2019-02-02T10:58:40.466Z,99089.80
2019-02-02T11:01:08.924Z,99090.75
2019-02-02T11:03:40.114Z,99084.78
2019-02-02T11:06:10.984Z,99082.57
2019-02-02T11:08:39.401Z,99075.03
2019-02-02T11:11:07.807Z,99068.05
2019-02-02T11:13:36.969Z,99074.09
2019-02-02T11:16:08.323Z,99071.89
2019-02-02T11:18:35.392Z,99067.99
2019-02-02T11:21:03.809Z,99063.48
2019-02-02T11:23:32.200Z,99067.28
2019-02-02T11:26:00.502Z,99064.81
2019-02-02T11:28:28.746Z,99073.89
2019-02-02T11:30:58.284Z,99071.14
2019-02-02T11:33:26.635Z,99059.48
2019-02-02T11:35:55.180Z,99064.68
2019-02-02T11:38:23.600Z,99069.75
2019-02-02T11:40:53.442Z,99061.76
2019-02-02T11:43:21.556Z,99065.56
2019-02-02T11:45:49.946Z,99071.92
2019-02-02T11:48:18.438Z,99066.38
2019-02-02T11:50:46.718Z,99068.78
2019-02-02T11:53:15.080Z,99069.09
2019-02-02T11:55:43.313Z,99066.98
2019-02-02T11:58:11.592Z,99061.11
2019-02-02T12:00:41.544Z,99069.84
2019-02-02T12:03:09.817Z,99073.25
2019-02-02T12:05:38.089Z,99067.73
2019-02-02T12:08:09.655Z,99057.13
2019-02-02T12:10:37.928Z,99063.84
2019-02-02T12:13:06.196Z,99059.94
2019-02-02T12:15:34.578Z,99050.08
2019-02-02T12:18:04.492Z,99051.24
2019-02-02T12:20:33.504Z,99058.91
2019-02-02T12:23:03.775Z,99062.93
2019-02-02T12:25:32.054Z,99064.69
2019-02-02T12:28:00.318Z,99062.58
2019-02-02T12:30:31.229Z,99054.55
2019-02-02T12:33:02.745Z,99065.98
2019-02-02T12:35:29.879Z,99056.89
2019-02-02T12:37:58.190Z,99061.89
2019-02-02T12:40:29.592Z,99055.86
2019-02-02T12:42:57.861Z,99061.99
2019-02-02T12:45:38.276Z,99055.86
2019-02-02T12:48:06.567Z,99059.20
2019-02-02T12:50:34.843Z,99059.45
2019-02-02T12:53:04.797Z,99057.54
2019-02-02T12:55:33.085Z,99055.56
2019-02-02T12:58:01.345Z,99059.58
2019-02-02T13:00:29.729Z,99047.80
2019-02-02T13:02:57.997Z,99054.84
2019-02-02T13:05:26.357Z,99055.07
2019-02-02T13:07:54.684Z,99061.17
2019-02-02T13:10:27.778Z,99055.98
2019-02-02T13:12:56.188Z,99055.04
2019-02-02T13:15:24.501Z,99063.87
2019-02-02T13:17:52.853Z,99070.72
2019-02-02T13:20:21.337Z,99070.85
2019-02-02T13:22:49.643Z,99061.28
2019-02-02T13:25:20.184Z,99068.71
2019-02-02T13:27:48.495Z,99061.99
2019-02-02T13:30:19.978Z,99052.90
2019-02-02T13:32:49.857Z,99053.97
2019-02-02T13:35:19.627Z,99055.59
2019-02-02T13:37:48.020Z,99061.28
2019-02-02T13:40:21.483Z,99050.98
2019-02-02T13:42:49.771Z,99051.53
2019-02-02T13:45:21.503Z,99047.99
2019-02-02T13:47:49.845Z,99056.24
2019-02-02T13:50:19.248Z,99043.73
2019-02-02T13:52:49.107Z,99042.09
2019-02-02T13:55:17.377Z,99034.65
2019-02-02T13:57:45.945Z,99040.39
2019-02-02T14:00:20.677Z,99033.91
2019-02-02T14:02:48.966Z,99037.67
2019-02-02T14:05:18.274Z,99032.02
2019-02-02T14:07:48.288Z,99038.64
2019-02-02T14:10:22.007Z,99031.92
2019-02-02T14:12:50.300Z,99036.62
2019-02-02T14:15:19.155Z,99034.03
2019-02-02T14:17:47.408Z,99033.22
2019-02-02T14:20:16.232Z,99028.70
2019-02-02T14:22:47.822Z,99026.23
2019-02-02T14:25:16.583Z,99029.55
2019-02-02T14:27:44.888Z,99026.82
2019-02-02T14:30:23.585Z,99019.97
2019-02-02T14:32:54.592Z,99027.41
2019-02-02T14:35:24.702Z,99025.16
2019-02-02T14:37:53.077Z,99025.78
2019-02-02T14:40:21.905Z,99017.64
2019-02-02T14:42:50.297Z,99022.83
2019-02-02T14:45:23.230Z,99014.09
2019-02-02T14:47:51.518Z,99016.75
2019-02-02T14:50:24.086Z,99010.97
2019-02-02T14:52:53.680Z,99012.95
2019-02-02T14:55:27.155Z,99007.22
2019-02-02T14:57:55.586Z,98997.31
2019-02-02T15:00:26.475Z,99009.33
2019-02-02T15:02:54.898Z,99002.55
2019-02-02T15:05:23.191Z,99013.17
2019-02-02T15:07:51.548Z,99014.73
2019-02-02T15:10:22.030Z,99015.77
2019-02-02T15:12:53.600Z,99016.94
2019-02-02T15:15:22.873Z,99025.14
2019-02-02T15:17:51.150Z,99012.51
2019-02-02T15:20:25.219Z,99013.54
2019-02-02T15:22:56.080Z,99009.78
2019-02-02T15:25:24.488Z,99004.31
2019-02-02T15:27:52.798Z,99012.78
2019-02-02T15:30:34.298Z,99015.88
2019-02-02T15:33:04.255Z,99017.50
2019-02-02T15:35:32.546Z,99007.45
2019-02-02T15:38:00.882Z,99015.03
2019-02-02T15:40:32.052Z,99025.78
2019-02-02T15:43:03.549Z,99024.97
2019-02-02T15:45:34.930Z,99032.95
2019-02-02T15:48:05.498Z,99029.42
2019-02-02T15:50:35.562Z,99031.26
2019-02-02T15:53:07.444Z,99035.16
2019-02-02T15:55:35.724Z,99032.37
2019-02-02T15:58:04.095Z,99028.52
2019-02-02T16:00:37.084Z,99030.43
2019-02-02T16:03:07.524Z,99044.37
2019-02-02T16:05:37.320Z,99039.66
2019-02-02T16:08:09.087Z,99047.49
2019-02-02T16:10:38.991Z,99052.59
2019-02-02T16:13:09.761Z,99057.47
2019-02-02T16:15:41.329Z,99059.31
2019-02-02T16:18:09.769Z,99050.45
2019-02-02T16:20:44.560Z,99051.03
2019-02-02T16:23:14.258Z,99062.17
2019-02-02T16:25:42.569Z,99061.37
2019-02-02T16:28:11.501Z,99062.44
2019-02-02T16:30:39.899Z,99055.85
2019-02-02T16:33:08.185Z,99062.28
2019-02-02T16:35:36.543Z,99074.23
2019-02-02T16:38:05.190Z,99071.56
2019-02-02T16:40:33.466Z,99068.64
2019-02-02T16:43:01.745Z,99064.94
2019-02-02T16:45:32.343Z,99060.85
2019-02-02T16:48:00.696Z,99062.16
2019-02-02T16:50:29.087Z,99059.75
2019-02-02T16:52:57.469Z,99058.67
2019-02-02T16:55:26.189Z,99054.91
2019-02-02T16:57:54.457Z,99059.30
2019-02-02T17:00:29.905Z,99057.99
2019-02-02T17:02:59.892Z,99056.69
2019-02-02T17:05:29.963Z,99045.13
2019-02-02T17:08:00.386Z,99054.61
2019-02-02T17:10:30.599Z,99056.16
2019-02-02T17:12:58.877Z,99051.11
2019-02-02T17:15:27.178Z,99049.13
2019-02-02T17:17:55.525Z,99041.59
2019-02-02T17:20:36.153Z,99057.64
2019-02-02T17:23:04.782Z,99055.80
2019-02-02T17:25:34.757Z,99057.09
2019-02-02T17:28:05.147Z,99058.53
2019-02-02T17:30:33.500Z,99058.53
2019-02-02T17:33:07.436Z,99056.87
2019-02-02T17:35:35.780Z,99062.14
2019-02-02T17:38:04.125Z,99061.75
2019-02-02T17:40:35.032Z,99062.97
2019-02-02T17:43:03.339Z,99061.48
2019-02-02T17:45:31.900Z,99043.56
2019-02-02T17:48:00.167Z,99059.95
2019-02-02T17:50:31.549Z,99068.70
2019-02-02T17:52:59.827Z,99062.91
2019-02-02T17:55:28.248Z,99070.00
2019-02-02T17:58:00.135Z,99072.82
2019-02-02T18:00:51.353Z,99068.30
2019-02-02T18:03:19.658Z,99067.13
2019-02-02T18:05:48.066Z,99069.55
2019-02-02T18:08:16.371Z,99076.89
2019-02-02T18:10:44.690Z,99084.22
2019-02-02T18:13:13.017Z,99085.27
2019-02-02T18:15:41.430Z,99071.23
2019-02-02T18:18:09.902Z,99077.38
2019-02-02T18:20:38.178Z,99067.80
2019-02-02T18:23:06.601Z,99070.06
2019-02-02T18:25:34.914Z,99075.13
2019-02-02T18:28:03.188Z,99082.66
2019-02-02T18:30:31.477Z,99086.63
2019-02-02T18:32:59.939Z,99090.88
2019-02-02T18:35:28.297Z,99094.23
2019-02-02T18:37:56.727Z,99096.56
2019-02-02T18:40:25.888Z,99099.98
2019-02-02T18:42:54.400Z,99093.48
2019-02-02T18:45:27.775Z,99108.71
2019-02-02T18:47:57.718Z,99109.30
2019-02-02T18:50:26.079Z,99099.72
2019-02-02T18:52:56.289Z,99103.48
2019-02-02T18:55:30.399Z,99105.14
2019-02-02T18:57:58.685Z,99095.81
2019-02-02T19:00:27.131Z,99094.38
2019-02-02T19:02:59.948Z,99088.70
2019-02-02T19:05:29.241Z,99094.52
2019-02-02T19:07:57.935Z,99088.24
2019-02-02T19:10:29.599Z,99079.60
2019-02-02T19:12:57.880Z,99073.11
2019-02-02T19:15:26.411Z,99066.55
2019-02-02T19:17:54.743Z,99063.11
2019-02-02T19:20:23.405Z,99055.70
2019-02-02T19:22:51.759Z,99050.64
2019-02-02T19:25:21.031Z,99058.53
2019-02-02T19:27:49.310Z,99056.97
2019-02-02T19:30:20.485Z,99069.92
2019-02-02T19:32:48.907Z,99061.28
2019-02-02T19:35:18.826Z,99076.06
2019-02-02T19:37:49.398Z,99065.17
2019-02-02T19:40:18.184Z,99075.58
2019-02-02T19:42:47.434Z,99068.94
2019-02-02T19:45:26.856Z,99062.13
2019-02-02T19:47:55.250Z,99061.98
2019-02-02T19:50:26.025Z,99064.32
2019-02-02T19:52:54.612Z,99048.73
2019-02-02T19:55:24.632Z,99053.57
2019-02-02T19:57:57.793Z,99051.46
2019-02-02T20:00:33.609Z,99060.62
2019-02-02T20:03:05.671Z,99049.67
2019-02-02T20:05:37.050Z,99054.73
2019-02-02T20:08:07.018Z,99061.98
2019-02-02T20:10:37.235Z,99052.62
2019-02-02T20:13:08.325Z,99047.20
2019-02-02T20:15:38.283Z,99046.39
2019-02-02T20:18:10.330Z,99044.61
2019-02-02T20:20:40.285Z,99039.81
2019-02-02T20:23:10.713Z,99035.78
2019-02-02T20:25:40.788Z,99044.88
2019-02-02T20:28:09.173Z,99042.19
2019-02-02T20:30:41.001Z,99045.76
2019-02-02T20:33:11.974Z,99042.71
2019-02-02T20:35:42.411Z,99034.33
2019-02-02T20:38:10.711Z,99044.86
2019-02-02T20:40:39.857Z,99021.73
2019-02-02T20:43:11.401Z,99030.83
2019-02-02T20:45:41.365Z,99035.13
2019-02-02T20:48:10.030Z,99022.55
2019-02-02T20:50:39.941Z,99010.98
2019-02-02T20:53:08.317Z,99011.93
2019-02-02T20:55:40.365Z,99017.66
2019-02-02T20:58:08.832Z,98997.49
2019-02-02T21:00:38.854Z,98996.36
2019-02-02T21:03:07.134Z,99000.62
2019-02-02T21:05:37.189Z,98993.58
2019-02-02T21:08:06.914Z,99000.20
2019-02-02T21:10:35.199Z,98984.52
2019-02-02T21:13:03.477Z,98980.63
2019-02-02T21:15:33.437Z,98982.41
2019-02-02T21:18:02.566Z,98972.58
2019-02-02T21:20:34.060Z,98970.47
2019-02-02T21:23:03.990Z,98974.69
2019-02-02T21:25:32.268Z,98968.72
2019-02-02T21:28:00.864Z,98958.73
2019-02-02T21:30:34.403Z,98973.05
2019-02-02T21:33:04.903Z,98976.39
2019-02-02T21:35:33.155Z,98975.72
2019-02-02T21:38:03.109Z,98979.64
2019-02-02T21:40:34.453Z,98972.67
2019-02-02T21:43:02.885Z,98971.17
2019-02-02T21:45:31.451Z,98974.58
2019-02-02T21:47:59.808Z,98967.96
2019-02-02T21:50:29.759Z,98974.67
2019-02-02T21:52:58.066Z,98975.88
2019-02-02T21:55:28.577Z,98979.28
2019-02-02T21:57:56.880Z,98989.67
2019-02-02T22:00:35.957Z,98976.43
2019-02-02T22:03:06.665Z,98986.23
2019-02-02T22:05:36.753Z,98987.14
2019-02-02T22:08:06.032Z,98985.45
2019-02-02T22:10:34.312Z,98993.78
2019-02-02T22:13:02.574Z,98988.37
2019-02-02T22:15:32.541Z,98991.58
2019-02-02T22:18:00.907Z,99002.52
2019-02-02T22:20:30.957Z,98993.06
2019-02-02T22:22:59.429Z,98996.25
2019-02-02T22:25:32.731Z,98993.06
2019-02-02T22:28:04.701Z,98979.20
2019-02-02T22:30:35.791Z,98982.56
2019-02-02T22:33:04.510Z,98985.66
2019-02-02T22:35:34.517Z,98974.09
2019-02-02T22:38:02.870Z,98978.50
2019-02-02T22:40:34.410Z,98979.53
2019-02-02T22:43:04.362Z,98975.69
2019-02-02T22:45:34.997Z,98980.22
2019-02-02T22:48:03.308Z,98980.79
2019-02-02T22:50:33.655Z,98973.00
2019-02-02T22:53:08.039Z,98990.02
2019-02-02T22:55:38.421Z,98985.41
2019-02-02T22:58:10.444Z,98979.90
2019-02-02T23:00:52.357Z,98977.80
2019-02-02T23:03:23.938Z,98979.94
2019-02-02T23:06:19.313Z,98984.38
2019-02-02T23:09:18.078Z,98982.86
2019-02-02T23:12:01.272Z,98966.53
2019-02-02T23:14:54.954Z,98988.92
2019-02-02T23:17:25.037Z,98961.48
2019-02-02T23:19:55.030Z,98962.92
2019-02-02T23:22:23.306Z,98966.02
2019-02-02T23:24:53.066Z,98955.48
2019-02-02T23:27:21.326Z,98980.50
2019-02-02T23:29:49.881Z,98967.77
2019-02-02T23:32:21.432Z,98953.83
2019-02-02T23:34:51.712Z,98964.63
2019-02-02T23:37:24.468Z,98960.41
2019-02-02T23:39:54.542Z,98951.58
2019-02-02T23:42:22.830Z,98970.94
2019-02-02T23:44:53.720Z,98966.55
2019-02-02T23:47:22.226Z,98944.59
2019-02-02T23:49:50.567Z,98957.05
2019-02-02T23:52:20.650Z,98953.61
2019-02-02T23:54:48.970Z,98954.45
2019-02-02T23:57:19.213Z,98947.59
2019-02-02T23:59:47.481Z,98942.27
